DAL2552 KATL-KEWR
Flight info
| Callsign | DAL2552 |
|---|---|
| Flight time | 1h 30m |
| Altitude | 35000 |
| Route | PLMMR3 BURGG Q22 UMBRE QUART PHLBO4 |
| Aircraft | A321/M-SDE3FGHIRWY/LB1 |
Departure
| Time | 2026-05-07 01:56 |
|---|---|
| Airport | Hartsfield Jackson Atlanta International Airport (KATL) |
Arrival
| Time | 2026-05-07 03:26 |
|---|---|
| Airport | Newark Liberty International Airport (KEWR) |
| Time | Latitude | Longitude | Altitude | Speed | Heading |
|---|---|---|---|---|---|
| 2026-05-07 01:33 | 33.63762 | -84.43861 | 1006 ft | 0 kts | 284° |
| 2026-05-07 01:43 | 33.63762 | -84.43860 | 1006 ft | 1 kts | 284° |
| 2026-05-07 01:43 | 33.63760 | -84.43852 | 1006 ft | 3 kts | 278° |
| 2026-05-07 01:43 | 33.63758 | -84.43833 | 1006 ft | 2 kts | 279° |
| 2026-05-07 01:44 | 33.63757 | -84.43812 | 1006 ft | 3 kts | 251° |
| 2026-05-07 01:44 | 33.63766 | -84.43795 | 1006 ft | 3 kts | 206° |
| 2026-05-07 01:44 | 33.63785 | -84.43788 | 1006 ft | 3 kts | 186° |
| 2026-05-07 01:44 | 33.63800 | -84.43787 | 1006 ft | 1 kts | 180° |
| 2026-05-07 01:45 | 33.63804 | -84.43787 | 1006 ft | 0 kts | 180° |
| 2026-05-07 01:48 | 33.63774 | -84.43787 | 1006 ft | 9 kts | 180° |
| 2026-05-07 01:48 | 33.63742 | -84.43787 | 1006 ft | 0 kts | 180° |
| 2026-05-07 01:48 | 33.63713 | -84.43785 | 1006 ft | 9 kts | 172° |
| 2026-05-07 01:48 | 33.63668 | -84.43724 | 1006 ft | 10 kts | 104° |
| 2026-05-07 01:49 | 33.63664 | -84.43641 | 1006 ft | 12 kts | 91° |
| 2026-05-07 01:49 | 33.63662 | -84.43504 | 1006 ft | 19 kts | 90° |
| 2026-05-07 01:49 | 33.63663 | -84.43352 | 1006 ft | 17 kts | 88° |
| 2026-05-07 01:49 | 33.63664 | -84.43216 | 1006 ft | 14 kts | 90° |
| 2026-05-07 01:50 | 33.63664 | -84.43107 | 1006 ft | 12 kts | 90° |
| 2026-05-07 01:50 | 33.63664 | -84.43003 | 1006 ft | 15 kts | 90° |
| 2026-05-07 01:50 | 33.63663 | -84.42880 | 1006 ft | 14 kts | 90° |
| 2026-05-07 01:50 | 33.63658 | -84.42766 | 1006 ft | 13 kts | 97° |
| 2026-05-07 01:51 | 33.63653 | -84.42666 | 1007 ft | 11 kts | 90° |
| 2026-05-07 01:51 | 33.63654 | -84.42575 | 1007 ft | 10 kts | 88° |
| 2026-05-07 01:51 | 33.63656 | -84.42495 | 1007 ft | 9 kts | 89° |
| 2026-05-07 01:51 | 33.63655 | -84.42406 | 1007 ft | 15 kts | 91° |
| 2026-05-07 01:52 | 33.63654 | -84.42286 | 1007 ft | 13 kts | 90° |
| 2026-05-07 01:52 | 33.63645 | -84.42183 | 1007 ft | 12 kts | 109° |
| 2026-05-07 01:52 | 33.63607 | -84.42099 | 1007 ft | 11 kts | 119° |
| 2026-05-07 01:52 | 33.63584 | -84.42018 | 1007 ft | 10 kts | 95° |
| 2026-05-07 01:53 | 33.63581 | -84.41936 | 1006 ft | 10 kts | 91° |
| 2026-05-07 01:53 | 33.63580 | -84.41826 | 1006 ft | 14 kts | 89° |
| 2026-05-07 01:53 | 33.63581 | -84.41713 | 1006 ft | 13 kts | 89° |
| 2026-05-07 01:53 | 33.63581 | -84.41591 | 1006 ft | 17 kts | 91° |
| 2026-05-07 01:54 | 33.63580 | -84.41455 | 1005 ft | 16 kts | 89° |
| 2026-05-07 01:54 | 33.63581 | -84.41317 | 1005 ft | 20 kts | 90° |
| 2026-05-07 01:54 | 33.63580 | -84.41125 | 1006 ft | 20 kts | 88° |
| 2026-05-07 01:54 | 33.63581 | -84.41006 | 1006 ft | 13 kts | 90° |
| 2026-05-07 01:55 | 33.63571 | -84.40935 | 1006 ft | 6 kts | 122° |
| 2026-05-07 01:55 | 33.63541 | -84.40913 | 1007 ft | 8 kts | 171° |
| 2026-05-07 01:55 | 33.63486 | -84.40922 | 1007 ft | 7 kts | 205° |
| 2026-05-07 01:55 | 33.63471 | -84.41047 | 1006 ft | 38 kts | 271° |
| 2026-05-07 01:56 | 33.63470 | -84.41648 | 1005 ft | 103 kts | 270° |
| 2026-05-07 01:56 | 33.63470 | -84.42701 | 1006 ft | 151 kts | 269° |
| 2026-05-07 01:56 | 33.63478 | -84.44110 | 1121 ft | 178 kts | 268° |
| 2026-05-07 01:56 | 33.63508 | -84.45576 | 1721 ft | 174 kts | 268° |
| 2026-05-07 01:57 | 33.63523 | -84.47037 | 2358 ft | 171 kts | 264° |
| 2026-05-07 01:57 | 33.63405 | -84.48434 | 2900 ft | 165 kts | 243° |
| 2026-05-07 01:57 | 33.62853 | -84.49642 | 3275 ft | 177 kts | 238° |
| 2026-05-07 01:57 | 33.62205 | -84.51035 | 3485 ft | 198 kts | 238° |
| 2026-05-07 01:58 | 33.61493 | -84.52557 | 3733 ft | 222 kts | 239° |
| 2026-05-07 01:58 | 33.60721 | -84.54234 | 4110 ft | 240 kts | 239° |
| 2026-05-07 01:58 | 33.59918 | -84.55989 | 4908 ft | 244 kts | 240° |
| 2026-05-07 01:58 | 33.59065 | -84.57752 | 5703 ft | 244 kts | 232° |
| 2026-05-07 01:59 | 33.57687 | -84.58956 | 6350 ft | 256 kts | 201° |
| 2026-05-07 01:59 | 33.55863 | -84.59037 | 6954 ft | 272 kts | 177° |
| 2026-05-07 01:59 | 33.53978 | -84.58655 | 7629 ft | 277 kts | 176° |
| 2026-05-07 01:59 | 33.52070 | -84.58264 | 8332 ft | 279 kts | 177° |
| 2026-05-07 02:00 | 33.50143 | -84.57885 | 9082 ft | 282 kts | 179° |
| 2026-05-07 02:00 | 33.48205 | -84.57510 | 9839 ft | 283 kts | 178° |
| 2026-05-07 02:00 | 33.46261 | -84.57092 | 10525 ft | 288 kts | 170° |
| 2026-05-07 02:00 | 33.44522 | -84.55774 | 11104 ft | 313 kts | 139° |
| 2026-05-07 02:01 | 33.43365 | -84.53409 | 11149 ft | 353 kts | 110° |
| 2026-05-07 02:01 | 33.43175 | -84.50362 | 11179 ft | 385 kts | 83° |
| 2026-05-07 02:01 | 33.43870 | -84.47188 | 11320 ft | 405 kts | 71° |
| 2026-05-07 02:01 | 33.44867 | -84.43950 | 11409 ft | 424 kts | 70° |
| 2026-05-07 02:02 | 33.45928 | -84.40596 | 11686 ft | 434 kts | 71° |
| 2026-05-07 02:02 | 33.46647 | -84.37084 | 12274 ft | 436 kts | 82° |
| 2026-05-07 02:02 | 33.47245 | -84.33517 | 12894 ft | 437 kts | 75° |
| 2026-05-07 02:02 | 33.48327 | -84.30139 | 13567 ft | 437 kts | 60° |
| 2026-05-07 02:03 | 33.50202 | -84.27292 | 14011 ft | 437 kts | 44° |
| 2026-05-07 02:03 | 33.52388 | -84.24749 | 14520 ft | 438 kts | 41° |
| 2026-05-07 02:03 | 33.54633 | -84.22267 | 15016 ft | 440 kts | 40° |
| 2026-05-07 02:03 | 33.56887 | -84.19760 | 15462 ft | 444 kts | 40° |
| 2026-05-07 02:04 | 33.59127 | -84.17190 | 15931 ft | 448 kts | 40° |
| 2026-05-07 02:04 | 33.61344 | -84.14555 | 16377 ft | 450 kts | 41° |
| 2026-05-07 02:04 | 33.63549 | -84.11858 | 16850 ft | 454 kts | 41° |
| 2026-05-07 02:04 | 33.65748 | -84.09127 | 17325 ft | 456 kts | 41° |
| 2026-05-07 02:05 | 33.67958 | -84.06372 | 17785 ft | 459 kts | 41° |
| 2026-05-07 02:05 | 33.70185 | -84.03604 | 18240 ft | 462 kts | 41° |
| 2026-05-07 02:05 | 33.72431 | -84.00832 | 18629 ft | 465 kts | 40° |
| 2026-05-07 02:05 | 33.74703 | -83.98046 | 19011 ft | 468 kts | 40° |
| 2026-05-07 02:06 | 33.76991 | -83.95245 | 19405 ft | 471 kts | 40° |
| 2026-05-07 02:06 | 33.79293 | -83.92429 | 19773 ft | 474 kts | 40° |
| 2026-05-07 02:06 | 33.81605 | -83.89593 | 20189 ft | 477 kts | 40° |
| 2026-05-07 02:06 | 33.83933 | -83.86728 | 20562 ft | 480 kts | 40° |
| 2026-05-07 02:07 | 33.86268 | -83.83844 | 20949 ft | 483 kts | 40° |
| 2026-05-07 02:07 | 33.90984 | -83.78019 | 21711 ft | 488 kts | 39° |
| 2026-05-07 02:07 | 33.93359 | -83.75082 | 22088 ft | 492 kts | 39° |
| 2026-05-07 02:08 | 33.95684 | -83.72026 | 22419 ft | 499 kts | 46° |
| 2026-05-07 02:08 | 33.97777 | -83.68655 | 22773 ft | 504 kts | 48° |
| 2026-05-07 02:08 | 33.99866 | -83.65247 | 23124 ft | 507 kts | 48° |
| 2026-05-07 02:08 | 34.01971 | -83.61820 | 23466 ft | 510 kts | 48° |
| 2026-05-07 02:09 | 34.04086 | -83.58378 | 23763 ft | 513 kts | 48° |
| 2026-05-07 02:09 | 34.06214 | -83.54911 | 24049 ft | 516 kts | 47° |
| 2026-05-07 02:09 | 34.08353 | -83.51425 | 24324 ft | 519 kts | 47° |
| 2026-05-07 02:09 | 34.10501 | -83.47920 | 24597 ft | 521 kts | 47° |
| 2026-05-07 02:10 | 34.12660 | -83.44391 | 24886 ft | 523 kts | 47° |
| 2026-05-07 02:10 | 34.14825 | -83.40846 | 25141 ft | 526 kts | 48° |
| 2026-05-07 02:10 | 34.16995 | -83.37288 | 25441 ft | 528 kts | 48° |
| 2026-05-07 02:10 | 34.19175 | -83.33707 | 25725 ft | 530 kts | 48° |
| 2026-05-07 02:11 | 34.21358 | -83.30114 | 26010 ft | 532 kts | 48° |
| 2026-05-07 02:11 | 34.23521 | -83.26551 | 26295 ft | 534 kts | 48° |
| 2026-05-07 02:11 | 34.25724 | -83.22923 | 26573 ft | 536 kts | 48° |
| 2026-05-07 02:11 | 34.27930 | -83.19288 | 26869 ft | 537 kts | 48° |
| 2026-05-07 02:12 | 34.30135 | -83.15650 | 27302 ft | 534 kts | 49° |
| 2026-05-07 02:12 | 34.32327 | -83.12032 | 27720 ft | 533 kts | 49° |
| 2026-05-07 02:12 | 34.34525 | -83.08424 | 28101 ft | 532 kts | 49° |
| 2026-05-07 02:12 | 34.36728 | -83.04829 | 28460 ft | 531 kts | 48° |
| 2026-05-07 02:13 | 34.38932 | -83.01242 | 28812 ft | 531 kts | 48° |
| 2026-05-07 02:13 | 34.41132 | -82.97654 | 29156 ft | 531 kts | 48° |
| 2026-05-07 02:13 | 34.43327 | -82.94065 | 29497 ft | 530 kts | 48° |
| 2026-05-07 02:13 | 34.45515 | -82.90474 | 29857 ft | 530 kts | 48° |
| 2026-05-07 02:14 | 34.47703 | -82.86879 | 30165 ft | 529 kts | 48° |
| 2026-05-07 02:14 | 34.49907 | -82.83306 | 30453 ft | 529 kts | 47° |
| 2026-05-07 02:14 | 34.52134 | -82.79752 | 30723 ft | 529 kts | 47° |
| 2026-05-07 02:14 | 34.54374 | -82.76215 | 31015 ft | 529 kts | 48° |
| 2026-05-07 02:15 | 34.56619 | -82.72680 | 31301 ft | 529 kts | 48° |
| 2026-05-07 02:15 | 34.58863 | -82.69140 | 31585 ft | 529 kts | 48° |
| 2026-05-07 02:15 | 34.61101 | -82.65589 | 31888 ft | 529 kts | 48° |
| 2026-05-07 02:15 | 34.63329 | -82.62028 | 32162 ft | 530 kts | 48° |
| 2026-05-07 02:16 | 34.65550 | -82.58460 | 32470 ft | 530 kts | 48° |
| 2026-05-07 02:16 | 34.67771 | -82.54887 | 32757 ft | 530 kts | 48° |
| 2026-05-07 02:16 | 34.69994 | -82.51312 | 33047 ft | 530 kts | 48° |
| 2026-05-07 02:16 | 34.72222 | -82.47738 | 33378 ft | 530 kts | 47° |
| 2026-05-07 02:17 | 34.74447 | -82.44169 | 33668 ft | 530 kts | 47° |
| 2026-05-07 02:17 | 34.76676 | -82.40591 | 33970 ft | 531 kts | 47° |
| 2026-05-07 02:17 | 34.78910 | -82.36999 | 34151 ft | 533 kts | 47° |
| 2026-05-07 02:17 | 34.81145 | -82.33399 | 34354 ft | 534 kts | 47° |
| 2026-05-07 02:18 | 34.83385 | -82.29782 | 34569 ft | 535 kts | 47° |
| 2026-05-07 02:18 | 34.85622 | -82.26164 | 34786 ft | 536 kts | 46° |
| 2026-05-07 02:18 | 34.87865 | -82.22533 | 34974 ft | 537 kts | 46° |
| 2026-05-07 02:18 | 34.90113 | -82.18889 | 35040 ft | 538 kts | 46° |
| 2026-05-07 02:19 | 34.94597 | -82.11607 | 35042 ft | 537 kts | 46° |
| 2026-05-07 02:19 | 34.99082 | -82.04319 | 35067 ft | 537 kts | 46° |
| 2026-05-07 02:20 | 35.03591 | -81.96991 | 35036 ft | 542 kts | 46° |
| 2026-05-07 02:20 | 35.08112 | -81.89619 | 35017 ft | 543 kts | 46° |
| 2026-05-07 02:21 | 35.12621 | -81.82230 | 34996 ft | 543 kts | 46° |
| 2026-05-07 02:21 | 35.17134 | -81.74833 | 35012 ft | 543 kts | 46° |
| 2026-05-07 02:22 | 35.21647 | -81.67437 | 35068 ft | 543 kts | 46° |
| 2026-05-07 02:22 | 35.26167 | -81.60017 | 35014 ft | 545 kts | 46° |
| 2026-05-07 02:23 | 35.30684 | -81.52565 | 34947 ft | 546 kts | 46° |
| 2026-05-07 02:23 | 35.35203 | -81.45091 | 34950 ft | 546 kts | 46° |
| 2026-05-07 02:24 | 35.39721 | -81.37602 | 34973 ft | 547 kts | 46° |
| 2026-05-07 02:24 | 35.44209 | -81.30147 | 35031 ft | 547 kts | 46° |
| 2026-05-07 02:25 | 35.48773 | -81.22576 | 35008 ft | 549 kts | 46° |
| 2026-05-07 02:25 | 35.53303 | -81.15026 | 35003 ft | 550 kts | 46° |
| 2026-05-07 02:26 | 35.57803 | -81.07502 | 34988 ft | 551 kts | 46° |
| 2026-05-07 02:26 | 35.62341 | -80.99915 | 34990 ft | 551 kts | 46° |
| 2026-05-07 02:27 | 35.66876 | -80.92311 | 35011 ft | 551 kts | 46° |
| 2026-05-07 02:27 | 35.71400 | -80.84703 | 35010 ft | 551 kts | 46° |
| 2026-05-07 02:28 | 35.75914 | -80.77094 | 35004 ft | 550 kts | 46° |
| 2026-05-07 02:28 | 35.79688 | -80.70724 | 34990 ft | 549 kts | 46° |
| 2026-05-07 02:29 | 35.84182 | -80.63115 | 34971 ft | 549 kts | 46° |
| 2026-05-07 02:29 | 35.88675 | -80.55504 | 34976 ft | 549 kts | 46° |
| 2026-05-07 02:30 | 35.93166 | -80.47884 | 34933 ft | 549 kts | 46° |
| 2026-05-07 02:30 | 35.97652 | -80.40255 | 34930 ft | 549 kts | 46° |
| 2026-05-07 02:31 | 36.02096 | -80.32659 | 34928 ft | 549 kts | 46° |
| 2026-05-07 02:31 | 36.06564 | -80.25005 | 34935 ft | 549 kts | 46° |
| 2026-05-07 02:32 | 36.11035 | -80.17351 | 34982 ft | 549 kts | 46° |
| 2026-05-07 02:32 | 36.15499 | -80.09684 | 34951 ft | 549 kts | 46° |
| 2026-05-07 02:33 | 36.19960 | -80.02000 | 34968 ft | 549 kts | 46° |
| 2026-05-07 02:33 | 36.24407 | -79.94323 | 34966 ft | 549 kts | 46° |
| 2026-05-07 02:34 | 36.28850 | -79.86631 | 34978 ft | 549 kts | 46° |
| 2026-05-07 02:34 | 36.33291 | -79.78940 | 35002 ft | 549 kts | 45° |
| 2026-05-07 02:35 | 36.37723 | -79.71236 | 35001 ft | 548 kts | 46° |
| 2026-05-07 02:35 | 36.42144 | -79.63534 | 34938 ft | 548 kts | 46° |
| 2026-05-07 02:36 | 36.46567 | -79.55825 | 34932 ft | 548 kts | 46° |
| 2026-05-07 02:36 | 36.50988 | -79.48095 | 34936 ft | 549 kts | 46° |
| 2026-05-07 02:37 | 36.55401 | -79.40355 | 34949 ft | 549 kts | 45° |
| 2026-05-07 02:37 | 36.59807 | -79.32614 | 34967 ft | 548 kts | 45° |
| 2026-05-07 02:38 | 36.64206 | -79.24861 | 34963 ft | 548 kts | 45° |
| 2026-05-07 02:38 | 36.68602 | -79.17102 | 34953 ft | 548 kts | 45° |
| 2026-05-07 02:39 | 36.72997 | -79.09334 | 34947 ft | 548 kts | 45° |
| 2026-05-07 02:39 | 36.77394 | -79.01549 | 34935 ft | 549 kts | 45° |
| 2026-05-07 02:40 | 36.81783 | -78.93748 | 34936 ft | 549 kts | 46° |
| 2026-05-07 02:40 | 36.86170 | -78.85956 | 34939 ft | 549 kts | 45° |
| 2026-05-07 02:41 | 36.90576 | -78.78178 | 34940 ft | 548 kts | 45° |
| 2026-05-07 02:41 | 36.94986 | -78.70399 | 34985 ft | 548 kts | 45° |
| 2026-05-07 02:42 | 36.99385 | -78.62611 | 34952 ft | 548 kts | 45° |
| 2026-05-07 02:42 | 37.03774 | -78.54804 | 34947 ft | 548 kts | 45° |
| 2026-05-07 02:43 | 37.08150 | -78.46986 | 34941 ft | 548 kts | 45° |
| 2026-05-07 02:43 | 37.12527 | -78.39159 | 34935 ft | 548 kts | 45° |
| 2026-05-07 02:44 | 37.16907 | -78.31321 | 34954 ft | 549 kts | 45° |
| 2026-05-07 02:44 | 37.21123 | -78.23297 | 34926 ft | 558 kts | 53° |
| 2026-05-07 02:45 | 37.24898 | -78.14790 | 34919 ft | 558 kts | 53° |
| 2026-05-07 02:45 | 37.28673 | -78.06264 | 34904 ft | 559 kts | 53° |
| 2026-05-07 02:46 | 37.32446 | -77.97736 | 34900 ft | 559 kts | 53° |
| 2026-05-07 02:46 | 37.36222 | -77.89204 | 34937 ft | 557 kts | 51° |
| 2026-05-07 02:47 | 37.38365 | -77.85211 | 34932 ft | 545 kts | 41° |
| 2026-05-07 02:47 | 37.40846 | -77.81696 | 34935 ft | 531 kts | 33° |
| 2026-05-07 02:47 | 37.43591 | -77.78685 | 34946 ft | 517 kts | 24° |
| 2026-05-07 02:47 | 37.46528 | -77.76171 | 34943 ft | 506 kts | 19° |
| 2026-05-07 02:48 | 37.52475 | -77.71407 | 34936 ft | 507 kts | 19° |
| 2026-05-07 02:48 | 37.58421 | -77.66610 | 34942 ft | 509 kts | 19° |
| 2026-05-07 02:49 | 37.64392 | -77.61780 | 34909 ft | 510 kts | 19° |
| 2026-05-07 02:49 | 37.70369 | -77.56933 | 34907 ft | 511 kts | 20° |
| 2026-05-07 02:50 | 37.76354 | -77.52078 | 34917 ft | 511 kts | 20° |
| 2026-05-07 02:50 | 37.82340 | -77.47226 | 34919 ft | 511 kts | 20° |
| 2026-05-07 02:51 | 37.88322 | -77.42365 | 34914 ft | 511 kts | 20° |
| 2026-05-07 02:51 | 37.94295 | -77.37477 | 34909 ft | 511 kts | 20° |
| 2026-05-07 02:52 | 38.00274 | -77.32580 | 34907 ft | 512 kts | 20° |
| 2026-05-07 02:52 | 38.06259 | -77.27679 | 34888 ft | 513 kts | 20° |
| 2026-05-07 02:53 | 38.12257 | -77.22776 | 34862 ft | 513 kts | 20° |
| 2026-05-07 02:53 | 38.18254 | -77.17865 | 34882 ft | 512 kts | 20° |
| 2026-05-07 02:54 | 38.24200 | -77.12966 | 34912 ft | 513 kts | 20° |
| 2026-05-07 02:54 | 38.30173 | -77.07996 | 34907 ft | 515 kts | 21° |
| 2026-05-07 02:55 | 38.36015 | -77.02604 | 34906 ft | 521 kts | 25° |
| 2026-05-07 02:55 | 38.41742 | -76.96899 | 34937 ft | 523 kts | 26° |
| 2026-05-07 02:56 | 38.47482 | -76.91188 | 34919 ft | 522 kts | 25° |
| 2026-05-07 02:56 | 38.53265 | -76.85594 | 34887 ft | 521 kts | 25° |
| 2026-05-07 02:57 | 38.59057 | -76.80035 | 34905 ft | 521 kts | 25° |
| 2026-05-07 02:57 | 38.64837 | -76.74439 | 34915 ft | 521 kts | 25° |
| 2026-05-07 02:58 | 38.70607 | -76.68821 | 34916 ft | 521 kts | 25° |
| 2026-05-07 02:58 | 38.76375 | -76.63183 | 34909 ft | 521 kts | 25° |
| 2026-05-07 02:59 | 38.82145 | -76.57549 | 34939 ft | 522 kts | 25° |
| 2026-05-07 02:59 | 38.85034 | -76.54730 | 34766 ft | 523 kts | 25° |
| 2026-05-07 02:59 | 38.87934 | -76.51899 | 34539 ft | 524 kts | 25° |
| 2026-05-07 03:00 | 38.90832 | -76.49066 | 34287 ft | 524 kts | 25° |
| 2026-05-07 03:00 | 38.93728 | -76.46225 | 34056 ft | 523 kts | 26° |
| 2026-05-07 03:00 | 38.96618 | -76.43385 | 33801 ft | 524 kts | 26° |
| 2026-05-07 03:00 | 38.99514 | -76.40535 | 33535 ft | 525 kts | 26° |
| 2026-05-07 03:01 | 39.02412 | -76.37674 | 33340 ft | 528 kts | 27° |
| 2026-05-07 03:01 | 39.05296 | -76.34687 | 33082 ft | 535 kts | 29° |
| 2026-05-07 03:01 | 39.08119 | -76.31534 | 32825 ft | 540 kts | 32° |
| 2026-05-07 03:01 | 39.10889 | -76.28248 | 32567 ft | 543 kts | 33° |
| 2026-05-07 03:02 | 39.13633 | -76.24894 | 32269 ft | 544 kts | 34° |
| 2026-05-07 03:02 | 39.16383 | -76.21524 | 31104 ft | 548 kts | 34° |
| 2026-05-07 03:02 | 39.19134 | -76.18188 | 30085 ft | 536 kts | 34° |
| 2026-05-07 03:02 | 39.21850 | -76.14944 | 28859 ft | 528 kts | 34° |
| 2026-05-07 03:03 | 39.24498 | -76.11826 | 27827 ft | 521 kts | 33° |
| 2026-05-07 03:03 | 39.27211 | -76.08684 | 27202 ft | 526 kts | 33° |
| 2026-05-07 03:03 | 39.29930 | -76.05542 | 26942 ft | 523 kts | 33° |
| 2026-05-07 03:03 | 39.32667 | -76.02373 | 26873 ft | 534 kts | 33° |
| 2026-05-07 03:04 | 39.35450 | -75.99138 | 26903 ft | 543 kts | 34° |
| 2026-05-07 03:04 | 39.38263 | -75.95840 | 26889 ft | 548 kts | 34° |
| 2026-05-07 03:04 | 39.41087 | -75.92502 | 26914 ft | 551 kts | 34° |
| 2026-05-07 03:04 | 39.43912 | -75.89148 | 26883 ft | 552 kts | 34° |
| 2026-05-07 03:05 | 39.46743 | -75.85777 | 26893 ft | 553 kts | 34° |
| 2026-05-07 03:05 | 39.49561 | -75.82417 | 26310 ft | 550 kts | 34° |
| 2026-05-07 03:05 | 39.52364 | -75.79077 | 25183 ft | 547 kts | 34° |
| 2026-05-07 03:05 | 39.55168 | -75.75747 | 23855 ft | 547 kts | 34° |
| 2026-05-07 03:06 | 39.57965 | -75.72433 | 22727 ft | 540 kts | 35° |
| 2026-05-07 03:06 | 39.60703 | -75.69174 | 21742 ft | 529 kts | 36° |
| 2026-05-07 03:06 | 39.63377 | -75.65980 | 20742 ft | 518 kts | 36° |
| 2026-05-07 03:06 | 39.66015 | -75.62834 | 20194 ft | 513 kts | 37° |
| 2026-05-07 03:07 | 39.68648 | -75.59703 | 19960 ft | 512 kts | 37° |
| 2026-05-07 03:07 | 39.71257 | -75.56592 | 19850 ft | 508 kts | 37° |
| 2026-05-07 03:07 | 39.73840 | -75.53491 | 19163 ft | 502 kts | 37° |
| 2026-05-07 03:07 | 39.76381 | -75.50421 | 18098 ft | 495 kts | 38° |
| 2026-05-07 03:08 | 39.78835 | -75.47436 | 17663 ft | 470 kts | 38° |
| 2026-05-07 03:08 | 39.81166 | -75.44594 | 17197 ft | 449 kts | 38° |
| 2026-05-07 03:08 | 39.83373 | -75.41907 | 16993 ft | 424 kts | 38° |
| 2026-05-07 03:08 | 39.85459 | -75.39368 | 16838 ft | 396 kts | 38° |
| 2026-05-07 03:09 | 39.87417 | -75.36992 | 16383 ft | 377 kts | 38° |
| 2026-05-07 03:09 | 39.89285 | -75.34737 | 15688 ft | 369 kts | 38° |
| 2026-05-07 03:09 | 39.91144 | -75.32502 | 15188 ft | 356 kts | 38° |
| 2026-05-07 03:09 | 39.92927 | -75.30347 | 14948 ft | 335 kts | 38° |
| 2026-05-07 03:10 | 39.94600 | -75.28322 | 14530 ft | 335 kts | 38° |
| 2026-05-07 03:10 | 39.96364 | -75.26197 | 14303 ft | 354 kts | 38° |
| 2026-05-07 03:10 | 39.98185 | -75.24005 | 13934 ft | 358 kts | 39° |
| 2026-05-07 03:10 | 40.00007 | -75.21795 | 13555 ft | 357 kts | 39° |
| 2026-05-07 03:11 | 40.01818 | -75.19586 | 13179 ft | 356 kts | 39° |
| 2026-05-07 03:11 | 40.03623 | -75.17383 | 12819 ft | 354 kts | 39° |
| 2026-05-07 03:11 | 40.05413 | -75.15194 | 12459 ft | 352 kts | 39° |
| 2026-05-07 03:11 | 40.07195 | -75.13015 | 12103 ft | 350 kts | 39° |
| 2026-05-07 03:12 | 40.08965 | -75.10851 | 11748 ft | 348 kts | 39° |
| 2026-05-07 03:12 | 40.10723 | -75.08696 | 11397 ft | 346 kts | 39° |
| 2026-05-07 03:12 | 40.12474 | -75.06549 | 11073 ft | 343 kts | 39° |
| 2026-05-07 03:12 | 40.13619 | -75.05142 | 10981 ft | 340 kts | 40° |
| 2026-05-07 03:13 | 40.15947 | -75.02294 | 10485 ft | 343 kts | 39° |
| 2026-05-07 03:13 | 40.17690 | -75.00159 | 10092 ft | 343 kts | 39° |
| 2026-05-07 03:13 | 40.19419 | -74.98037 | 9798 ft | 339 kts | 39° |
| 2026-05-07 03:13 | 40.20559 | -74.96641 | 9547 ft | 338 kts | 39° |
| 2026-05-07 03:14 | 40.22265 | -74.94551 | 9231 ft | 334 kts | 39° |
| 2026-05-07 03:14 | 40.23947 | -74.92482 | 8927 ft | 330 kts | 39° |
| 2026-05-07 03:14 | 40.27206 | -74.88306 | 8324 ft | 326 kts | 43° |
| 2026-05-07 03:15 | 40.28750 | -74.86144 | 8061 ft | 323 kts | 44° |
| 2026-05-07 03:15 | 40.30253 | -74.83988 | 7847 ft | 321 kts | 45° |
| 2026-05-07 03:15 | 40.31753 | -74.81828 | 7475 ft | 319 kts | 45° |
| 2026-05-07 03:15 | 40.33246 | -74.79696 | 7117 ft | 317 kts | 45° |
| 2026-05-07 03:16 | 40.34723 | -74.77599 | 6939 ft | 306 kts | 44° |
| 2026-05-07 03:16 | 40.36129 | -74.75604 | 6764 ft | 290 kts | 44° |
| 2026-05-07 03:16 | 40.37487 | -74.73682 | 6447 ft | 286 kts | 43° |
| 2026-05-07 03:16 | 40.38833 | -74.71784 | 6182 ft | 282 kts | 43° |
| 2026-05-07 03:17 | 40.40023 | -74.69747 | 5895 ft | 282 kts | 57° |
| 2026-05-07 03:17 | 40.40936 | -74.67485 | 5591 ft | 280 kts | 65° |
| 2026-05-07 03:17 | 40.41677 | -74.65129 | 5357 ft | 277 kts | 68° |
| 2026-05-07 03:17 | 40.42383 | -74.62780 | 5095 ft | 274 kts | 68° |
| 2026-05-07 03:18 | 40.43074 | -74.60468 | 4873 ft | 270 kts | 68° |
| 2026-05-07 03:18 | 40.43745 | -74.58173 | 4583 ft | 269 kts | 68° |
| 2026-05-07 03:18 | 40.44411 | -74.55892 | 4322 ft | 266 kts | 68° |
| 2026-05-07 03:18 | 40.45063 | -74.53638 | 4021 ft | 261 kts | 68° |
| 2026-05-07 03:19 | 40.45701 | -74.51422 | 3479 ft | 257 kts | 67° |
| 2026-05-07 03:19 | 40.46310 | -74.49241 | 2998 ft | 252 kts | 68° |
| 2026-05-07 03:19 | 40.46891 | -74.47132 | 2801 ft | 246 kts | 68° |
| 2026-05-07 03:19 | 40.47445 | -74.45082 | 2787 ft | 233 kts | 68° |
| 2026-05-07 03:20 | 40.47965 | -74.43102 | 2805 ft | 228 kts | 68° |
| 2026-05-07 03:20 | 40.48469 | -74.41126 | 2804 ft | 227 kts | 69° |
| 2026-05-07 03:20 | 40.48975 | -74.39141 | 2819 ft | 225 kts | 69° |
| 2026-05-07 03:20 | 40.49444 | -74.37275 | 2793 ft | 212 kts | 70° |
| 2026-05-07 03:21 | 40.49909 | -74.35468 | 2800 ft | 207 kts | 69° |
| 2026-05-07 03:21 | 40.50372 | -74.33675 | 2811 ft | 207 kts | 68° |
| 2026-05-07 03:21 | 40.50828 | -74.31887 | 2803 ft | 206 kts | 69° |
| 2026-05-07 03:21 | 40.51285 | -74.30102 | 2805 ft | 206 kts | 69° |
| 2026-05-07 03:22 | 40.51817 | -74.28364 | 2811 ft | 204 kts | 54° |
| 2026-05-07 03:22 | 40.52751 | -74.27014 | 2811 ft | 197 kts | 30° |
| 2026-05-07 03:22 | 40.53911 | -74.26196 | 2825 ft | 183 kts | 19° |
| 2026-05-07 03:22 | 40.55045 | -74.25482 | 2732 ft | 177 kts | 20° |
| 2026-05-07 03:23 | 40.56136 | -74.24792 | 2537 ft | 172 kts | 20° |
| 2026-05-07 03:23 | 40.57207 | -74.24115 | 2342 ft | 169 kts | 19° |
| 2026-05-07 03:23 | 40.58253 | -74.23453 | 2144 ft | 165 kts | 20° |
| 2026-05-07 03:23 | 40.59269 | -74.22805 | 1959 ft | 159 kts | 20° |
| 2026-05-07 03:24 | 40.60248 | -74.22149 | 1744 ft | 156 kts | 21° |
| 2026-05-07 03:24 | 40.61215 | -74.21486 | 1475 ft | 158 kts | 22° |
| 2026-05-07 03:24 | 40.62176 | -74.20836 | 1302 ft | 151 kts | 21° |
| 2026-05-07 03:24 | 40.63129 | -74.20250 | 1135 ft | 150 kts | 20° |
| 2026-05-07 03:25 | 40.64083 | -74.19693 | 900 ft | 151 kts | 19° |
| 2026-05-07 03:25 | 40.65043 | -74.19125 | 758 ft | 150 kts | 20° |
| 2026-05-07 03:25 | 40.65956 | -74.18555 | 542 ft | 143 kts | 22° |
| 2026-05-07 03:25 | 40.66832 | -74.17997 | 337 ft | 138 kts | 22° |
| 2026-05-07 03:26 | 40.67682 | -74.17464 | 125 ft | 134 kts | 22° |
| 2026-05-07 03:26 | 40.68486 | -74.16962 | 22 ft | 120 kts | 27° |
| 2026-05-07 03:26 | 40.69084 | -74.16584 | 23 ft | 70 kts | 25° |
| 2026-05-07 03:26 | 40.69375 | -74.16394 | 28 ft | 30 kts | 26° |
| 2026-05-07 03:27 | 40.69550 | -74.16298 | 21 ft | 23 kts | 14° |
| 2026-05-07 03:27 | 40.69683 | -74.16295 | 19 ft | 15 kts | 349° |
| 2026-05-07 03:27 | 40.69731 | -74.16326 | 18 ft | 5 kts | 309° |
| 2026-05-07 03:27 | 40.69735 | -74.16363 | 19 ft | 4 kts | 258° |
| 2026-05-07 03:28 | 40.69729 | -74.16390 | 19 ft | 3 kts | 253° |
| 2026-05-07 03:28 | 40.69733 | -74.16433 | 19 ft | 11 kts | 295° |
| 2026-05-07 03:28 | 40.69774 | -74.16546 | 17 ft | 14 kts | 295° |
| 2026-05-07 03:28 | 40.69809 | -74.16652 | 15 ft | 11 kts | 279° |
| 2026-05-07 03:29 | 40.69789 | -74.16740 | 16 ft | 11 kts | 245° |
| 2026-05-07 03:29 | 40.69729 | -74.16833 | 20 ft | 14 kts | 210° |
| 2026-05-07 03:29 | 40.69643 | -74.16889 | 19 ft | 14 kts | 205° |
| 2026-05-07 03:29 | 40.69551 | -74.16947 | 19 ft | 15 kts | 205° |
| 2026-05-07 03:30 | 40.69458 | -74.17005 | 20 ft | 15 kts | 205° |
| 2026-05-07 03:30 | 40.69354 | -74.17071 | 18 ft | 18 kts | 206° |
| 2026-05-07 03:30 | 40.69240 | -74.17145 | 19 ft | 19 kts | 206° |
| 2026-05-07 03:30 | 40.69119 | -74.17221 | 17 ft | 20 kts | 205° |
| 2026-05-07 03:31 | 40.69016 | -74.17286 | 19 ft | 12 kts | 205° |
| 2026-05-07 03:31 | 40.68950 | -74.17328 | 20 ft | 10 kts | 205° |
| 2026-05-07 03:31 | 40.68888 | -74.17367 | 21 ft | 10 kts | 205° |
| 2026-05-07 03:31 | 40.68826 | -74.17406 | 22 ft | 10 kts | 205° |
| 2026-05-07 03:32 | 40.68774 | -74.17439 | 23 ft | 7 kts | 205° |
| 2026-05-07 03:32 | 40.68750 | -74.17454 | 24 ft | 0 kts | 205° |
| 2026-05-07 03:32 | 40.68742 | -74.17459 | 25 ft | 6 kts | 205° |
| 2026-05-07 03:32 | 40.68667 | -74.17506 | 25 ft | 13 kts | 206° |
| 2026-05-07 03:33 | 40.68610 | -74.17569 | 24 ft | 10 kts | 265° |
| 2026-05-07 03:33 | 40.68643 | -74.17621 | 23 ft | 8 kts | 13° |
| 2026-05-07 03:33 | 40.68690 | -74.17598 | 23 ft | 6 kts | 22° |
| 2026-05-07 03:33 | 40.68728 | -74.17587 | 23 ft | 5 kts | 348° |
| 2026-05-07 03:34 | 40.68752 | -74.17614 | 23 ft | 4 kts | 309° |
| 2026-05-07 03:34 | 40.68757 | -74.17623 | 24 ft | 0 kts | 309° |